sensor_id;sensor_type;location;lat;lon;timestamp;P1;durP1;ratioP1;P2;durP2;ratioP2
75386;SDS011;63966;47.914;22.266;2023-03-13T00:01:46;15.15;;;6.55;;
75386;SDS011;63966;47.914;22.266;2023-03-13T00:04:50;12.73;;;6.07;;
75386;SDS011;63966;47.914;22.266;2023-03-13T00:07:54;14.70;;;6.45;;
75386;SDS011;63966;47.914;22.266;2023-03-13T00:11:01;12.70;;;6.40;;
75386;SDS011;63966;47.914;22.266;2023-03-13T00:14:08;11.67;;;6.40;;
75386;SDS011;63966;47.914;22.266;2023-03-13T00:17:12;12.18;;;5.80;;
75386;SDS011;63966;47.914;22.266;2023-03-13T00:20:16;12.25;;;6.07;;
75386;SDS011;63966;47.914;22.266;2023-03-13T00:23:20;11.98;;;6.45;;
75386;SDS011;63966;47.914;22.266;2023-03-13T00:26:24;12.10;;;5.95;;
75386;SDS011;63966;47.914;22.266;2023-03-13T00:29:29;12.63;;;5.37;;
75386;SDS011;63966;47.914;22.266;2023-03-13T00:32:39;10.10;;;5.22;;
75386;SDS011;63966;47.914;22.266;2023-03-13T00:35:47;12.30;;;5.47;;
75386;SDS011;63966;47.914;22.266;2023-03-13T00:38:52;12.07;;;5.93;;
75386;SDS011;63966;47.914;22.266;2023-03-13T00:41:56;11.70;;;5.82;;
75386;SDS011;63966;47.914;22.266;2023-03-13T00:45:00;12.47;;;6.30;;
75386;SDS011;63966;47.914;22.266;2023-03-13T00:48:04;13.55;;;6.22;;
75386;SDS011;63966;47.914;22.266;2023-03-13T00:51:08;12.27;;;5.75;;
75386;SDS011;63966;47.914;22.266;2023-03-13T00:54:12;10.70;;;5.93;;
75386;SDS011;63966;47.914;22.266;2023-03-13T00:57:16;11.38;;;6.30;;
75386;SDS011;63966;47.914;22.266;2023-03-13T01:00:21;12.90;;;6.20;;
75386;SDS011;63966;47.914;22.266;2023-03-13T01:03:26;11.88;;;5.90;;
75386;SDS011;63966;47.914;22.266;2023-03-13T01:06:30;10.80;;;5.47;;
75386;SDS011;63966;47.914;22.266;2023-03-13T01:09:36;10.70;;;5.53;;
75386;SDS011;63966;47.914;22.266;2023-03-13T01:12:39;11.90;;;5.50;;
75386;SDS011;63966;47.914;22.266;2023-03-13T01:15:43;12.10;;;6.10;;
75386;SDS011;63966;47.914;22.266;2023-03-13T01:18:47;14.63;;;6.22;;
75386;SDS011;63966;47.914;22.266;2023-03-13T01:21:52;11.35;;;5.93;;
75386;SDS011;63966;47.914;22.266;2023-03-13T01:24:56;9.20;;;4.68;;
75386;SDS011;63966;47.914;22.266;2023-03-13T01:27:59;11.18;;;5.70;;
75386;SDS011;63966;47.914;22.266;2023-03-13T01:31:10;12.03;;;5.20;;
75386;SDS011;63966;47.914;22.266;2023-03-13T01:34:15;12.15;;;6.03;;
75386;SDS011;63966;47.914;22.266;2023-03-13T01:37:18;11.60;;;5.50;;
75386;SDS011;63966;47.914;22.266;2023-03-13T01:40:25;11.15;;;5.47;;
75386;SDS011;63966;47.914;22.266;2023-03-13T01:43:30;11.80;;;5.47;;
75386;SDS011;63966;47.914;22.266;2023-03-13T01:46:35;12.27;;;5.80;;
75386;SDS011;63966;47.914;22.266;2023-03-13T01:49:44;13.23;;;5.68;;
75386;SDS011;63966;47.914;22.266;2023-03-13T01:53:00;11.45;;;5.95;;
75386;SDS011;63966;47.914;22.266;2023-03-13T01:56:06;13.35;;;5.72;;
75386;SDS011;63966;47.914;22.266;2023-03-13T01:59:14;12.80;;;6.30;;
75386;SDS011;63966;47.914;22.266;2023-03-13T02:02:21;14.02;;;6.22;;
75386;SDS011;63966;47.914;22.266;2023-03-13T02:05:26;12.15;;;5.93;;
75386;SDS011;63966;47.914;22.266;2023-03-13T02:08:34;10.45;;;5.55;;
75386;SDS011;63966;47.914;22.266;2023-03-13T02:14:45;12.67;;;5.73;;
75386;SDS011;63966;47.914;22.266;2023-03-13T02:17:51;10.55;;;5.50;;
75386;SDS011;63966;47.914;22.266;2023-03-13T02:20:59;10.95;;;5.80;;
75386;SDS011;63966;47.914;22.266;2023-03-13T02:24:30;13.27;;;5.93;;
75386;SDS011;63966;47.914;22.266;2023-03-13T02:27:59;11.47;;;5.50;;
75386;SDS011;63966;47.914;22.266;2023-03-13T02:31:12;11.55;;;6.05;;
75386;SDS011;63966;47.914;22.266;2023-03-13T02:34:17;12.02;;;5.85;;
75386;SDS011;63966;47.914;22.266;2023-03-13T02:37:25;11.70;;;5.38;;
75386;SDS011;63966;47.914;22.266;2023-03-13T02:40:34;10.50;;;5.63;;
75386;SDS011;63966;47.914;22.266;2023-03-13T02:43:44;11.83;;;5.70;;
75386;SDS011;63966;47.914;22.266;2023-03-13T02:46:48;12.45;;;6.35;;
75386;SDS011;63966;47.914;22.266;2023-03-13T02:49:57;10.25;;;5.55;;
75386;SDS011;63966;47.914;22.266;2023-03-13T02:53:02;13.57;;;6.40;;
75386;SDS011;63966;47.914;22.266;2023-03-13T02:56:08;10.63;;;5.45;;
75386;SDS011;63966;47.914;22.266;2023-03-13T02:59:15;11.10;;;6.43;;
75386;SDS011;63966;47.914;22.266;2023-03-13T03:02:20;11.82;;;5.03;;
75386;SDS011;63966;47.914;22.266;2023-03-13T03:05:24;10.80;;;5.50;;
75386;SDS011;63966;47.914;22.266;2023-03-13T03:08:28;10.95;;;5.13;;
75386;SDS011;63966;47.914;22.266;2023-03-13T03:11:31;11.27;;;5.53;;
75386;SDS011;63966;47.914;22.266;2023-03-13T03:14:40;11.05;;;5.20;;
75386;SDS011;63966;47.914;22.266;2023-03-13T03:17:43;11.55;;;5.72;;
75386;SDS011;63966;47.914;22.266;2023-03-13T03:20:50;11.32;;;5.88;;
75386;SDS011;63966;47.914;22.266;2023-03-13T03:23:54;11.48;;;5.95;;
75386;SDS011;63966;47.914;22.266;2023-03-13T03:26:58;11.97;;;5.23;;
75386;SDS011;63966;47.914;22.266;2023-03-13T03:30:10;13.10;;;5.78;;
75386;SDS011;63966;47.914;22.266;2023-03-13T03:33:14;12.93;;;5.93;;
75386;SDS011;63966;47.914;22.266;2023-03-13T03:36:18;12.10;;;5.63;;
75386;SDS011;63966;47.914;22.266;2023-03-13T03:39:24;9.93;;;5.03;;
75386;SDS011;63966;47.914;22.266;2023-03-13T03:42:27;11.57;;;5.45;;
75386;SDS011;63966;47.914;22.266;2023-03-13T03:45:31;12.02;;;5.90;;
75386;SDS011;63966;47.914;22.266;2023-03-13T03:48:36;11.68;;;5.50;;
75386;SDS011;63966;47.914;22.266;2023-03-13T03:51:41;10.27;;;5.50;;
75386;SDS011;63966;47.914;22.266;2023-03-13T03:54:46;11.43;;;5.03;;
75386;SDS011;63966;47.914;22.266;2023-03-13T03:57:51;13.10;;;6.15;;
75386;SDS011;63966;47.914;22.266;2023-03-13T04:01:11;10.82;;;5.03;;
75386;SDS011;63966;47.914;22.266;2023-03-13T04:04:15;11.93;;;6.15;;
75386;SDS011;63966;47.914;22.266;2023-03-13T04:07:23;12.70;;;6.20;;
75386;SDS011;63966;47.914;22.266;2023-03-13T04:10:28;12.98;;;6.07;;
75386;SDS011;63966;47.914;22.266;2023-03-13T04:13:31;13.95;;;7.30;;
75386;SDS011;63966;47.914;22.266;2023-03-13T04:16:35;12.95;;;5.82;;
75386;SDS011;63966;47.914;22.266;2023-03-13T04:19:39;12.60;;;6.17;;
75386;SDS011;63966;47.914;22.266;2023-03-13T04:22:42;12.35;;;6.30;;
75386;SDS011;63966;47.914;22.266;2023-03-13T04:25:47;12.50;;;6.47;;
75386;SDS011;63966;47.914;22.266;2023-03-13T04:28:50;14.38;;;6.32;;
75386;SDS011;63966;47.914;22.266;2023-03-13T04:32:06;13.70;;;6.30;;
75386;SDS011;63966;47.914;22.266;2023-03-13T04:35:09;11.30;;;5.80;;
75386;SDS011;63966;47.914;22.266;2023-03-13T04:38:46;13.38;;;5.95;;
75386;SDS011;63966;47.914;22.266;2023-03-13T04:42:08;16.52;;;6.97;;
75386;SDS011;63966;47.914;22.266;2023-03-13T04:45:31;14.38;;;6.43;;
75386;SDS011;63966;47.914;22.266;2023-03-13T04:48:52;11.68;;;5.68;;
75386;SDS011;63966;47.914;22.266;2023-03-13T04:52:19;11.30;;;6.03;;
75386;SDS011;63966;47.914;22.266;2023-03-13T04:55:25;13.23;;;5.88;;
75386;SDS011;63966;47.914;22.266;2023-03-13T04:58:41;12.57;;;6.07;;
75386;SDS011;63966;47.914;22.266;2023-03-13T05:02:09;11.93;;;5.47;;
75386;SDS011;63966;47.914;22.266;2023-03-13T05:05:33;15.23;;;7.20;;
75386;SDS011;63966;47.914;22.266;2023-03-13T05:09:07;13.13;;;6.30;;
75386;SDS011;63966;47.914;22.266;2023-03-13T05:12:33;14.10;;;6.40;;
75386;SDS011;63966;47.914;22.266;2023-03-13T05:15:50;11.07;;;6.05;;
75386;SDS011;63966;47.914;22.266;2023-03-13T05:19:12;12.63;;;6.88;;
75386;SDS011;63966;47.914;22.266;2023-03-13T05:22:41;9.73;;;5.50;;
75386;SDS011;63966;47.914;22.266;2023-03-13T05:26:08;11.50;;;6.07;;
75386;SDS011;63966;47.914;22.266;2023-03-13T05:29:49;10.77;;;5.68;;
75386;SDS011;63966;47.914;22.266;2023-03-13T05:33:14;11.75;;;6.03;;
75386;SDS011;63966;47.914;22.266;2023-03-13T05:36:37;12.65;;;6.40;;
75386;SDS011;63966;47.914;22.266;2023-03-13T05:39:46;11.82;;;5.80;;
75386;SDS011;63966;47.914;22.266;2023-03-13T05:43:13;8.87;;;5.10;;
75386;SDS011;63966;47.914;22.266;2023-03-13T05:46:35;9.10;;;4.90;;
75386;SDS011;63966;47.914;22.266;2023-03-13T05:49:57;12.48;;;6.15;;
75386;SDS011;63966;47.914;22.266;2023-03-13T05:53:27;14.35;;;6.50;;
75386;SDS011;63966;47.914;22.266;2023-03-13T05:56:49;12.85;;;6.30;;
75386;SDS011;63966;47.914;22.266;2023-03-13T06:00:09;12.23;;;5.67;;
75386;SDS011;63966;47.914;22.266;2023-03-13T06:03:34;12.30;;;5.28;;
75386;SDS011;63966;47.914;22.266;2023-03-13T06:06:38;10.52;;;4.95;;
75386;SDS011;63966;47.914;22.266;2023-03-13T06:09:42;9.82;;;4.97;;
75386;SDS011;63966;47.914;22.266;2023-03-13T06:12:52;9.52;;;5.43;;
75386;SDS011;63966;47.914;22.266;2023-03-13T06:16:00;13.07;;;5.73;;
75386;SDS011;63966;47.914;22.266;2023-03-13T06:19:17;10.00;;;5.05;;
75386;SDS011;63966;47.914;22.266;2023-03-13T06:22:21;11.60;;;5.20;;
75386;SDS011;63966;47.914;22.266;2023-03-13T06:25:24;9.02;;;4.53;;
75386;SDS011;63966;47.914;22.266;2023-03-13T06:28:28;11.43;;;5.30;;
75386;SDS011;63966;47.914;22.266;2023-03-13T06:31:31;9.73;;;5.00;;
75386;SDS011;63966;47.914;22.266;2023-03-13T06:34:35;10.05;;;4.38;;
75386;SDS011;63966;47.914;22.266;2023-03-13T06:37:38;12.05;;;5.53;;
75386;SDS011;63966;47.914;22.266;2023-03-13T06:40:42;12.32;;;5.20;;
75386;SDS011;63966;47.914;22.266;2023-03-13T06:43:48;11.35;;;5.20;;
75386;SDS011;63966;47.914;22.266;2023-03-13T06:46:52;10.20;;;5.00;;
75386;SDS011;63966;47.914;22.266;2023-03-13T06:49:56;10.90;;;5.60;;
75386;SDS011;63966;47.914;22.266;2023-03-13T06:52:59;8.95;;;4.47;;
75386;SDS011;63966;47.914;22.266;2023-03-13T06:56:04;12.38;;;5.60;;
75386;SDS011;63966;47.914;22.266;2023-03-13T06:59:08;14.07;;;6.07;;
75386;SDS011;63966;47.914;22.266;2023-03-13T07:02:11;9.48;;;4.68;;
75386;SDS011;63966;47.914;22.266;2023-03-13T07:05:16;10.00;;;5.00;;
75386;SDS011;63966;47.914;22.266;2023-03-13T07:08:19;10.27;;;4.90;;
75386;SDS011;63966;47.914;22.266;2023-03-13T07:11:23;11.82;;;5.70;;
75386;SDS011;63966;47.914;22.266;2023-03-13T07:14:27;9.13;;;4.53;;
75386;SDS011;63966;47.914;22.266;2023-03-13T07:17:31;11.02;;;5.32;;
75386;SDS011;63966;47.914;22.266;2023-03-13T07:20:34;9.77;;;4.90;;
75386;SDS011;63966;47.914;22.266;2023-03-13T07:23:38;10.55;;;4.78;;
75386;SDS011;63966;47.914;22.266;2023-03-13T07:26:41;9.13;;;4.97;;
75386;SDS011;63966;47.914;22.266;2023-03-13T07:30:05;8.25;;;4.32;;
75386;SDS011;63966;47.914;22.266;2023-03-13T07:33:10;11.30;;;5.05;;
75386;SDS011;63966;47.914;22.266;2023-03-13T07:36:14;10.23;;;5.03;;
75386;SDS011;63966;47.914;22.266;2023-03-13T07:39:18;9.95;;;4.40;;
75386;SDS011;63966;47.914;22.266;2023-03-13T07:42:22;10.15;;;5.07;;
75386;SDS011;63966;47.914;22.266;2023-03-13T07:45:26;10.25;;;4.25;;
75386;SDS011;63966;47.914;22.266;2023-03-13T07:48:34;10.90;;;4.90;;
75386;SDS011;63966;47.914;22.266;2023-03-13T07:51:38;8.93;;;4.60;;
75386;SDS011;63966;47.914;22.266;2023-03-13T07:54:45;11.10;;;5.10;;
75386;SDS011;63966;47.914;22.266;2023-03-13T07:57:49;10.35;;;4.75;;
75386;SDS011;63966;47.914;22.266;2023-03-13T08:00:53;9.55;;;4.50;;
75386;SDS011;63966;47.914;22.266;2023-03-13T08:03:58;9.18;;;4.45;;
75386;SDS011;63966;47.914;22.266;2023-03-13T08:07:09;11.10;;;5.90;;
75386;SDS011;63966;47.914;22.266;2023-03-13T08:10:31;10.77;;;4.97;;
75386;SDS011;63966;47.914;22.266;2023-03-13T08:13:44;12.07;;;5.53;;
75386;SDS011;63966;47.914;22.266;2023-03-13T08:16:49;10.10;;;5.43;;
75386;SDS011;63966;47.914;22.266;2023-03-13T08:19:53;10.93;;;5.68;;
75386;SDS011;63966;47.914;22.266;2023-03-13T08:22:57;11.10;;;4.80;;
75386;SDS011;63966;47.914;22.266;2023-03-13T08:26:07;11.57;;;5.70;;
75386;SDS011;63966;47.914;22.266;2023-03-13T08:29:12;11.02;;;5.30;;
75386;SDS011;63966;47.914;22.266;2023-03-13T08:32:16;11.60;;;5.85;;
75386;SDS011;63966;47.914;22.266;2023-03-13T08:35:20;10.35;;;5.18;;
75386;SDS011;63966;47.914;22.266;2023-03-13T08:38:23;9.43;;;4.80;;
75386;SDS011;63966;47.914;22.266;2023-03-13T08:41:28;11.10;;;5.60;;
75386;SDS011;63966;47.914;22.266;2023-03-13T08:44:35;12.50;;;5.63;;
75386;SDS011;63966;47.914;22.266;2023-03-13T08:47:38;9.57;;;4.15;;
75386;SDS011;63966;47.914;22.266;2023-03-13T08:50:42;10.73;;;5.05;;
75386;SDS011;63966;47.914;22.266;2023-03-13T08:53:45;12.83;;;5.40;;
75386;SDS011;63966;47.914;22.266;2023-03-13T08:56:50;9.43;;;4.45;;
75386;SDS011;63966;47.914;22.266;2023-03-13T08:59:54;16.52;;;5.88;;
75386;SDS011;63966;47.914;22.266;2023-03-13T09:02:57;10.13;;;4.25;;
75386;SDS011;63966;47.914;22.266;2023-03-13T09:06:01;11.35;;;4.53;;
75386;SDS011;63966;47.914;22.266;2023-03-13T09:09:05;10.27;;;4.90;;
75386;SDS011;63966;47.914;22.266;2023-03-13T09:12:09;9.88;;;5.07;;
75386;SDS011;63966;47.914;22.266;2023-03-13T09:15:31;10.50;;;5.30;;
75386;SDS011;63966;47.914;22.266;2023-03-13T09:18:35;9.23;;;4.40;;
75386;SDS011;63966;47.914;22.266;2023-03-13T09:21:39;10.88;;;4.88;;
75386;SDS011;63966;47.914;22.266;2023-03-13T09:24:43;9.07;;;4.63;;
75386;SDS011;63966;47.914;22.266;2023-03-13T09:27:47;11.50;;;5.30;;
75386;SDS011;63966;47.914;22.266;2023-03-13T09:30:50;9.77;;;4.43;;
75386;SDS011;63966;47.914;22.266;2023-03-13T09:33:54;9.23;;;5.07;;
75386;SDS011;63966;47.914;22.266;2023-03-13T09:36:58;9.80;;;4.88;;
75386;SDS011;63966;47.914;22.266;2023-03-13T09:40:04;10.57;;;4.83;;
75386;SDS011;63966;47.914;22.266;2023-03-13T09:43:22;9.27;;;5.05;;
75386;SDS011;63966;47.914;22.266;2023-03-13T09:49:53;8.13;;;4.25;;
75386;SDS011;63966;47.914;22.266;2023-03-13T09:53:19;10.07;;;5.05;;
75386;SDS011;63966;47.914;22.266;2023-03-13T09:56:38;9.83;;;4.93;;
75386;SDS011;63966;47.914;22.266;2023-03-13T09:59:49;11.95;;;4.65;;
75386;SDS011;63966;47.914;22.266;2023-03-13T10:03:11;11.57;;;5.15;;
75386;SDS011;63966;47.914;22.266;2023-03-13T10:06:24;11.15;;;5.00;;
75386;SDS011;63966;47.914;22.266;2023-03-13T10:09:33;11.98;;;6.40;;
75386;SDS011;63966;47.914;22.266;2023-03-13T10:12:40;15.87;;;5.77;;
75386;SDS011;63966;47.914;22.266;2023-03-13T10:15:54;10.40;;;5.00;;
75386;SDS011;63966;47.914;22.266;2023-03-13T10:19:11;9.65;;;4.38;;
75386;SDS011;63966;47.914;22.266;2023-03-13T10:22:17;9.13;;;4.40;;
75386;SDS011;63966;47.914;22.266;2023-03-13T10:25:32;7.78;;;3.90;;
75386;SDS011;63966;47.914;22.266;2023-03-13T10:28:37;9.07;;;4.00;;
75386;SDS011;63966;47.914;22.266;2023-03-13T10:31:40;9.50;;;4.43;;
75386;SDS011;63966;47.914;22.266;2023-03-13T10:38:07;9.80;;;4.22;;
75386;SDS011;63966;47.914;22.266;2023-03-13T10:41:17;9.15;;;4.70;;
75386;SDS011;63966;47.914;22.266;2023-03-13T10:44:31;10.27;;;5.00;;
75386;SDS011;63966;47.914;22.266;2023-03-13T10:47:35;8.90;;;4.28;;
75386;SDS011;63966;47.914;22.266;2023-03-13T10:50:44;9.60;;;4.00;;
75386;SDS011;63966;47.914;22.266;2023-03-13T10:53:49;9.00;;;4.50;;
75386;SDS011;63966;47.914;22.266;2023-03-13T11:03:36;9.15;;;4.38;;
75386;SDS011;63966;47.914;22.266;2023-03-13T11:06:39;8.75;;;3.90;;
75386;SDS011;63966;47.914;22.266;2023-03-13T11:09:43;8.85;;;4.65;;
75386;SDS011;63966;47.914;22.266;2023-03-13T11:13:26;11.68;;;5.10;;
75386;SDS011;63966;47.914;22.266;2023-03-13T11:16:42;11.30;;;5.23;;
75386;SDS011;63966;47.914;22.266;2023-03-13T11:23:20;9.25;;;4.40;;
75386;SDS011;63966;47.914;22.266;2023-03-13T11:32:54;10.17;;;4.90;;
75386;SDS011;63966;47.914;22.266;2023-03-13T11:36:32;9.52;;;4.63;;
75386;SDS011;63966;47.914;22.266;2023-03-13T11:43:07;9.18;;;4.70;;
75386;SDS011;63966;47.914;22.266;2023-03-13T11:46:45;11.32;;;5.00;;
75386;SDS011;63966;47.914;22.266;2023-03-13T12:00:19;8.50;;;3.80;;
75386;SDS011;63966;47.914;22.266;2023-03-13T12:07:24;9.13;;;4.30;;
75386;SDS011;63966;47.914;22.266;2023-03-13T12:10:47;8.63;;;4.10;;
75386;SDS011;63966;47.914;22.266;2023-03-13T12:14:12;7.15;;;3.90;;
75386;SDS011;63966;47.914;22.266;2023-03-13T12:17:42;9.25;;;3.88;;
75386;SDS011;63966;47.914;22.266;2023-03-13T12:24:33;7.27;;;3.50;;
75386;SDS011;63966;47.914;22.266;2023-03-13T12:27:57;8.88;;;4.15;;
75386;SDS011;63966;47.914;22.266;2023-03-13T12:34:38;7.88;;;3.40;;
75386;SDS011;63966;47.914;22.266;2023-03-13T12:37:54;7.20;;;3.58;;
75386;SDS011;63966;47.914;22.266;2023-03-13T12:41:29;6.43;;;3.30;;
75386;SDS011;63966;47.914;22.266;2023-03-13T12:44:44;8.07;;;3.40;;
75386;SDS011;63966;47.914;22.266;2023-03-13T12:51:04;8.18;;;3.70;;
75386;SDS011;63966;47.914;22.266;2023-03-13T13:00:54;12.35;;;6.25;;
75386;SDS011;63966;47.914;22.266;2023-03-13T13:04:09;9.13;;;3.90;;
75386;SDS011;63966;47.914;22.266;2023-03-13T13:07:23;7.40;;;3.33;;
75386;SDS011;63966;47.914;22.266;2023-03-13T13:10:29;11.43;;;7.05;;
75386;SDS011;63966;47.914;22.266;2023-03-13T13:13:34;7.27;;;3.30;;
75386;SDS011;63966;47.914;22.266;2023-03-13T13:19:50;7.07;;;3.40;;
75386;SDS011;63966;47.914;22.266;2023-03-13T13:22:55;8.48;;;3.40;;
75386;SDS011;63966;47.914;22.266;2023-03-13T13:32:41;8.02;;;3.50;;
75386;SDS011;63966;47.914;22.266;2023-03-13T13:39:21;6.40;;;2.80;;
75386;SDS011;63966;47.914;22.266;2023-03-13T13:45:55;8.97;;;4.07;;
75386;SDS011;63966;47.914;22.266;2023-03-13T13:49:10;9.93;;;4.00;;
75386;SDS011;63966;47.914;22.266;2023-03-13T13:52:33;12.65;;;4.93;;
75386;SDS011;63966;47.914;22.266;2023-03-13T13:58:42;5.20;;;2.20;;
75386;SDS011;63966;47.914;22.266;2023-03-13T14:02:03;4.53;;;2.20;;
75386;SDS011;63966;47.914;22.266;2023-03-13T14:05:15;4.45;;;1.92;;
75386;SDS011;63966;47.914;22.266;2023-03-13T14:08:41;5.30;;;2.30;;
75386;SDS011;63966;47.914;22.266;2023-03-13T14:11:46;4.85;;;2.00;;
75386;SDS011;63966;47.914;22.266;2023-03-13T14:18:22;8.70;;;2.50;;
75386;SDS011;63966;47.914;22.266;2023-03-13T14:21:27;7.57;;;2.95;;
75386;SDS011;63966;47.914;22.266;2023-03-13T14:24:31;5.88;;;3.00;;
75386;SDS011;63966;47.914;22.266;2023-03-13T14:27:41;7.45;;;3.65;;
75386;SDS011;63966;47.914;22.266;2023-03-13T14:30:46;5.10;;;2.40;;
75386;SDS011;63966;47.914;22.266;2023-03-13T14:33:51;7.80;;;2.10;;
75386;SDS011;63966;47.914;22.266;2023-03-13T14:36:57;4.40;;;2.10;;
75386;SDS011;63966;47.914;22.266;2023-03-13T14:46:41;5.40;;;2.33;;
75386;SDS011;63966;47.914;22.266;2023-03-13T14:49:46;5.10;;;2.43;;
75386;SDS011;63966;47.914;22.266;2023-03-13T14:52:54;4.55;;;1.83;;
75386;SDS011;63966;47.914;22.266;2023-03-13T14:56:16;7.22;;;2.17;;
75386;SDS011;63966;47.914;22.266;2023-03-13T14:59:25;6.68;;;2.35;;
75386;SDS011;63966;47.914;22.266;2023-03-13T15:02:29;4.60;;;2.45;;
75386;SDS011;63966;47.914;22.266;2023-03-13T15:05:33;10.50;;;3.17;;
75386;SDS011;63966;47.914;22.266;2023-03-13T15:08:38;5.55;;;2.63;;
75386;SDS011;63966;47.914;22.266;2023-03-13T15:12:11;7.07;;;2.33;;
75386;SDS011;63966;47.914;22.266;2023-03-13T15:15:20;4.38;;;2.10;;
75386;SDS011;63966;47.914;22.266;2023-03-13T15:18:27;9.10;;;3.10;;
75386;SDS011;63966;47.914;22.266;2023-03-13T15:21:33;5.20;;;2.20;;
75386;SDS011;63966;47.914;22.266;2023-03-13T15:24:37;6.90;;;2.95;;
75386;SDS011;63966;47.914;22.266;2023-03-13T15:27:40;7.10;;;2.85;;
75386;SDS011;63966;47.914;22.266;2023-03-13T15:30:44;6.93;;;2.88;;
75386;SDS011;63966;47.914;22.266;2023-03-13T15:33:52;6.22;;;2.50;;
75386;SDS011;63966;47.914;22.266;2023-03-13T15:37:00;7.33;;;2.70;;
75386;SDS011;63966;47.914;22.266;2023-03-13T15:40:05;9.10;;;3.78;;
75386;SDS011;63966;47.914;22.266;2023-03-13T15:43:16;15.98;;;6.72;;
75386;SDS011;63966;47.914;22.266;2023-03-13T15:46:21;17.42;;;7.28;;
75386;SDS011;63966;47.914;22.266;2023-03-13T15:49:26;40.05;;;16.45;;
75386;SDS011;63966;47.914;22.266;2023-03-13T15:52:30;25.47;;;9.00;;
75386;SDS011;63966;47.914;22.266;2023-03-13T15:55:35;21.85;;;8.13;;
75386;SDS011;63966;47.914;22.266;2023-03-13T15:58:39;17.00;;;6.68;;
75386;SDS011;63966;47.914;22.266;2023-03-13T16:01:43;11.18;;;5.78;;
75386;SDS011;63966;47.914;22.266;2023-03-13T16:04:47;12.93;;;5.53;;
75386;SDS011;63966;47.914;22.266;2023-03-13T16:07:51;17.07;;;8.80;;
75386;SDS011;63966;47.914;22.266;2023-03-13T16:10:55;21.38;;;11.48;;
75386;SDS011;63966;47.914;22.266;2023-03-13T16:13:58;16.60;;;8.10;;
75386;SDS011;63966;47.914;22.266;2023-03-13T16:17:02;16.13;;;7.35;;
75386;SDS011;63966;47.914;22.266;2023-03-13T16:20:21;16.15;;;7.38;;
75386;SDS011;63966;47.914;22.266;2023-03-13T16:23:26;18.70;;;9.00;;
75386;SDS011;63966;47.914;22.266;2023-03-13T16:26:30;16.52;;;8.07;;
75386;SDS011;63966;47.914;22.266;2023-03-13T16:29:34;12.02;;;5.43;;
75386;SDS011;63966;47.914;22.266;2023-03-13T16:32:38;11.52;;;5.30;;
75386;SDS011;63966;47.914;22.266;2023-03-13T16:35:41;10.55;;;4.10;;
75386;SDS011;63966;47.914;22.266;2023-03-13T16:38:45;8.57;;;3.70;;
75386;SDS011;63966;47.914;22.266;2023-03-13T16:41:50;11.68;;;4.03;;
75386;SDS011;63966;47.914;22.266;2023-03-13T16:44:53;8.38;;;4.00;;
75386;SDS011;63966;47.914;22.266;2023-03-13T16:47:57;9.55;;;3.92;;
75386;SDS011;63966;47.914;22.266;2023-03-13T16:51:00;17.48;;;6.93;;
75386;SDS011;63966;47.914;22.266;2023-03-13T16:54:05;31.33;;;9.90;;
75386;SDS011;63966;47.914;22.266;2023-03-13T16:57:10;13.90;;;5.82;;
75386;SDS011;63966;47.914;22.266;2023-03-13T17:00:16;17.73;;;7.35;;
75386;SDS011;63966;47.914;22.266;2023-03-13T17:03:23;14.70;;;6.38;;
75386;SDS011;63966;47.914;22.266;2023-03-13T17:06:28;18.52;;;8.40;;
75386;SDS011;63966;47.914;22.266;2023-03-13T17:09:35;27.93;;;11.43;;
75386;SDS011;63966;47.914;22.266;2023-03-13T17:12:39;15.25;;;6.38;;
75386;SDS011;63966;47.914;22.266;2023-03-13T17:15:42;18.45;;;7.75;;
75386;SDS011;63966;47.914;22.266;2023-03-13T17:18:47;18.58;;;7.47;;
75386;SDS011;63966;47.914;22.266;2023-03-13T17:21:55;19.33;;;7.65;;
75386;SDS011;63966;47.914;22.266;2023-03-13T17:24:59;10.33;;;4.70;;
75386;SDS011;63966;47.914;22.266;2023-03-13T17:28:02;8.40;;;4.40;;
75386;SDS011;63966;47.914;22.266;2023-03-13T17:31:07;8.38;;;4.28;;
75386;SDS011;63966;47.914;22.266;2023-03-13T17:34:12;11.05;;;4.43;;
75386;SDS011;63966;47.914;22.266;2023-03-13T17:37:20;7.53;;;4.03;;
75386;SDS011;63966;47.914;22.266;2023-03-13T17:40:26;9.23;;;4.50;;
75386;SDS011;63966;47.914;22.266;2023-03-13T17:43:30;11.10;;;4.90;;
75386;SDS011;63966;47.914;22.266;2023-03-13T17:49:37;9.95;;;4.55;;
75386;SDS011;63966;47.914;22.266;2023-03-13T17:52:41;9.65;;;4.70;;
75386;SDS011;63966;47.914;22.266;2023-03-13T17:55:45;10.17;;;4.67;;
75386;SDS011;63966;47.914;22.266;2023-03-13T17:58:50;11.43;;;4.78;;
75386;SDS011;63966;47.914;22.266;2023-03-13T18:01:56;10.05;;;4.95;;
75386;SDS011;63966;47.914;22.266;2023-03-13T18:04:59;9.02;;;4.93;;
75386;SDS011;63966;47.914;22.266;2023-03-13T18:08:03;11.18;;;4.60;;
75386;SDS011;63966;47.914;22.266;2023-03-13T18:11:07;8.70;;;4.17;;
75386;SDS011;63966;47.914;22.266;2023-03-13T18:14:13;9.40;;;4.30;;
75386;SDS011;63966;47.914;22.266;2023-03-13T18:17:20;9.80;;;5.13;;
75386;SDS011;63966;47.914;22.266;2023-03-13T18:20:28;11.52;;;4.75;;
75386;SDS011;63966;47.914;22.266;2023-03-13T18:23:33;9.18;;;4.32;;
75386;SDS011;63966;47.914;22.266;2023-03-13T18:26:37;8.67;;;4.23;;
75386;SDS011;63966;47.914;22.266;2023-03-13T18:29:42;8.85;;;4.30;;
75386;SDS011;63966;47.914;22.266;2023-03-13T18:32:47;9.23;;;5.07;;
75386;SDS011;63966;47.914;22.266;2023-03-13T18:35:51;10.50;;;4.80;;
75386;SDS011;63966;47.914;22.266;2023-03-13T18:38:55;8.82;;;4.32;;
75386;SDS011;63966;47.914;22.266;2023-03-13T18:41:59;10.73;;;4.90;;
75386;SDS011;63966;47.914;22.266;2023-03-13T18:45:03;9.05;;;4.40;;
75386;SDS011;63966;47.914;22.266;2023-03-13T18:48:09;7.95;;;4.13;;
75386;SDS011;63966;47.914;22.266;2023-03-13T18:51:16;8.15;;;3.95;;
75386;SDS011;63966;47.914;22.266;2023-03-13T18:54:21;11.93;;;4.70;;
75386;SDS011;63966;47.914;22.266;2023-03-13T18:57:25;10.87;;;4.90;;
75386;SDS011;63966;47.914;22.266;2023-03-13T19:00:29;10.32;;;4.90;;
75386;SDS011;63966;47.914;22.266;2023-03-13T19:03:34;12.50;;;5.43;;
75386;SDS011;63966;47.914;22.266;2023-03-13T19:06:38;14.68;;;6.88;;
75386;SDS011;63966;47.914;22.266;2023-03-13T19:09:43;15.13;;;6.60;;
75386;SDS011;63966;47.914;22.266;2023-03-13T19:12:49;12.37;;;6.40;;
75386;SDS011;63966;47.914;22.266;2023-03-13T19:15:53;13.65;;;6.80;;
75386;SDS011;63966;47.914;22.266;2023-03-13T19:18:57;11.98;;;6.78;;
75386;SDS011;63966;47.914;22.266;2023-03-13T19:22:01;15.48;;;7.05;;
75386;SDS011;63966;47.914;22.266;2023-03-13T19:25:05;13.57;;;7.43;;
75386;SDS011;63966;47.914;22.266;2023-03-13T19:28:10;16.17;;;8.07;;
75386;SDS011;63966;47.914;22.266;2023-03-13T19:31:13;15.85;;;8.00;;
75386;SDS011;63966;47.914;22.266;2023-03-13T19:34:20;17.33;;;8.70;;
75386;SDS011;63966;47.914;22.266;2023-03-13T19:37:24;17.40;;;8.60;;
75386;SDS011;63966;47.914;22.266;2023-03-13T19:40:29;17.25;;;9.07;;
75386;SDS011;63966;47.914;22.266;2023-03-13T19:43:33;23.73;;;9.13;;
75386;SDS011;63966;47.914;22.266;2023-03-13T19:46:37;19.95;;;8.52;;
75386;SDS011;63966;47.914;22.266;2023-03-13T19:49:44;16.25;;;8.55;;
75386;SDS011;63966;47.914;22.266;2023-03-13T19:52:51;16.55;;;8.02;;
75386;SDS011;63966;47.914;22.266;2023-03-13T19:55:55;19.98;;;10.25;;
75386;SDS011;63966;47.914;22.266;2023-03-13T19:59:03;30.47;;;12.70;;
75386;SDS011;63966;47.914;22.266;2023-03-13T20:02:09;35.35;;;16.40;;